sensor_id;sensor_type;location;lat;lon;timestamp;pressure;altitude;pressure_sealevel;temperature;humidity
12949;BME280;6539;49.476;8.484;2024-01-30T00:00:23;101886.78;;;6.05;87.81
12949;BME280;6539;49.476;8.484;2024-01-30T00:03:11;101892.25;;;6.05;87.81
12949;BME280;6539;49.476;8.484;2024-01-30T00:05:57;101892.25;;;6.05;87.60
12949;BME280;6539;49.476;8.484;2024-01-30T00:08:44;101890.63;;;6.04;87.35
12949;BME280;6539;49.476;8.484;2024-01-30T00:11:32;101887.44;;;6.02;87.47
12949;BME280;6539;49.476;8.484;2024-01-30T00:14:18;101885.41;;;5.99;87.13
12949;BME280;6539;49.476;8.484;2024-01-30T00:17:07;101893.09;;;5.97;87.30
12949;BME280;6539;49.476;8.484;2024-01-30T00:19:53;101889.00;;;5.91;87.36
12949;BME280;6539;49.476;8.484;2024-01-30T00:22:42;101896.28;;;5.87;87.50
12949;BME280;6539;49.476;8.484;2024-01-30T00:25:28;101882.81;;;5.82;87.60
12949;BME280;6539;49.476;8.484;2024-01-30T00:28:16;101892.16;;;5.81;87.53
12949;BME280;6539;49.476;8.484;2024-01-30T00:31:04;101892.16;;;5.81;87.61
12949;BME280;6539;49.476;8.484;2024-01-30T00:33:53;101902.53;;;5.88;87.59
12949;BME280;6539;49.476;8.484;2024-01-30T00:36:39;101901.25;;;5.85;87.48
12949;BME280;6539;49.476;8.484;2024-01-30T00:39:25;101899.97;;;5.83;87.52
12949;BME280;6539;49.476;8.484;2024-01-30T00:42:13;101903.69;;;5.78;87.16
12949;BME280;6539;49.476;8.484;2024-01-30T00:44:59;101901.66;;;5.75;87.38
12949;BME280;6539;49.476;8.484;2024-01-30T00:47:45;101899.34;;;5.65;87.79
12949;BME280;6539;49.476;8.484;2024-01-30T00:50:31;101905.31;;;5.59;88.64
12949;BME280;6539;49.476;8.484;2024-01-30T00:53:18;101907.13;;;5.55;88.63
12949;BME280;6539;49.476;8.484;2024-01-30T00:56:04;101895.47;;;5.54;88.93
12949;BME280;6539;49.476;8.484;2024-01-30T00:58:52;101901.56;;;5.51;88.82
12949;BME280;6539;49.476;8.484;2024-01-30T01:01:44;101896.31;;;5.46;89.20
12949;BME280;6539;49.476;8.484;2024-01-30T01:04:30;101895.41;;;5.42;89.41
12949;BME280;6539;49.476;8.484;2024-01-30T01:07:19;101895.28;;;5.38;90.24
12949;BME280;6539;49.476;8.484;2024-01-30T01:10:06;101897.53;;;5.36;90.35
12949;BME280;6539;49.476;8.484;2024-01-30T01:12:57;101899.91;;;5.38;90.70
12949;BME280;6539;49.476;8.484;2024-01-30T01:15:48;101898.72;;;5.48;90.64
12949;BME280;6539;49.476;8.484;2024-01-30T01:18:36;101894.41;;;5.47;90.46
12949;BME280;6539;49.476;8.484;2024-01-30T01:21:22;101901.44;;;5.48;90.31
12949;BME280;6539;49.476;8.484;2024-01-30T01:24:09;101890.56;;;5.48;90.46
12949;BME280;6539;49.476;8.484;2024-01-30T01:26:58;101887.94;;;5.51;90.13
12949;BME280;6539;49.476;8.484;2024-01-30T01:29:44;101885.56;;;5.50;90.50
12949;BME280;6539;49.476;8.484;2024-01-30T01:32:33;101889.75;;;5.47;90.35
12949;BME280;6539;49.476;8.484;2024-01-30T01:35:24;101889.28;;;5.45;90.90
12949;BME280;6539;49.476;8.484;2024-01-30T01:38:11;101893.94;;;5.45;91.10
12949;BME280;6539;49.476;8.484;2024-01-30T01:40:57;101888.84;;;5.43;91.02
12949;BME280;6539;49.476;8.484;2024-01-30T01:43:43;101885.41;;;5.46;91.33
12949;BME280;6539;49.476;8.484;2024-01-30T01:46:33;101888.50;;;5.45;91.03
12949;BME280;6539;49.476;8.484;2024-01-30T01:49:20;101873.25;;;5.43;91.35
12949;BME280;6539;49.476;8.484;2024-01-30T01:52:09;101874.41;;;5.43;91.64
12949;BME280;6539;49.476;8.484;2024-01-30T01:54:55;101872.50;;;5.43;91.63
12949;BME280;6539;49.476;8.484;2024-01-30T01:57:45;101880.66;;;5.43;91.65
12949;BME280;6539;49.476;8.484;2024-01-30T02:00:32;101870.88;;;5.42;91.85
12949;BME280;6539;49.476;8.484;2024-01-30T02:03:21;101865.25;;;5.47;91.62
12949;BME280;6539;49.476;8.484;2024-01-30T02:06:09;101869.69;;;5.52;91.53
12949;BME280;6539;49.476;8.484;2024-01-30T02:08:55;101871.25;;;5.53;91.70
12949;BME280;6539;49.476;8.484;2024-01-30T02:11:42;101873.69;;;5.54;91.14
12949;BME280;6539;49.476;8.484;2024-01-30T02:14:28;101876.41;;;5.54;90.93
12949;BME280;6539;49.476;8.484;2024-01-30T02:17:15;101873.44;;;5.59;90.56
12949;BME280;6539;49.476;8.484;2024-01-30T02:20:02;101868.81;;;5.60;90.42
12949;BME280;6539;49.476;8.484;2024-01-30T02:22:49;101875.38;;;5.59;90.31
12949;BME280;6539;49.476;8.484;2024-01-30T02:25:42;101873.91;;;5.61;90.29
12949;BME280;6539;49.476;8.484;2024-01-30T02:28:33;101873.72;;;5.66;89.77
12949;BME280;6539;49.476;8.484;2024-01-30T02:31:19;101881.22;;;5.69;89.72
12949;BME280;6539;49.476;8.484;2024-01-30T02:34:05;101878.69;;;5.64;89.84
12949;BME280;6539;49.476;8.484;2024-01-30T02:36:54;101873.44;;;5.59;89.98
12949;BME280;6539;49.476;8.484;2024-01-30T02:39:40;101873.78;;;5.58;90.27
12949;BME280;6539;49.476;8.484;2024-01-30T02:42:26;101876.50;;;5.58;90.46
12949;BME280;6539;49.476;8.484;2024-01-30T02:45:13;101881.84;;;5.54;90.23
12949;BME280;6539;49.476;8.484;2024-01-30T02:48:02;101883.75;;;5.54;90.66
12949;BME280;6539;49.476;8.484;2024-01-30T02:50:50;101867.75;;;5.52;90.49
12949;BME280;6539;49.476;8.484;2024-01-30T02:53:41;101881.69;;;5.51;90.69
12949;BME280;6539;49.476;8.484;2024-01-30T02:56:27;101882.03;;;5.49;90.65
12949;BME280;6539;49.476;8.484;2024-01-30T02:59:13;101878.41;;;5.45;90.92
12949;BME280;6539;49.476;8.484;2024-01-30T03:01:59;101884.50;;;5.42;90.92
12949;BME280;6539;49.476;8.484;2024-01-30T03:04:45;101883.91;;;5.36;91.24
12949;BME280;6539;49.476;8.484;2024-01-30T03:07:36;101871.75;;;5.34;91.06
12949;BME280;6539;49.476;8.484;2024-01-30T03:10:22;101871.63;;;5.30;91.61
12949;BME280;6539;49.476;8.484;2024-01-30T03:13:08;101870.16;;;5.33;91.97
12949;BME280;6539;49.476;8.484;2024-01-30T03:15:54;101867.97;;;5.26;92.23
12949;BME280;6539;49.476;8.484;2024-01-30T03:18:43;101873.75;;;5.25;92.57
12949;BME280;6539;49.476;8.484;2024-01-30T03:21:29;101869.78;;;5.22;92.80
12949;BME280;6539;49.476;8.484;2024-01-30T03:24:15;101871.22;;;5.20;92.78
12949;BME280;6539;49.476;8.484;2024-01-30T03:27:01;101867.38;;;5.21;93.06
12949;BME280;6539;49.476;8.484;2024-01-30T03:29:47;101867.19;;;5.26;92.85
12949;BME280;6539;49.476;8.484;2024-01-30T03:32:36;101865.78;;;5.20;93.07
12949;BME280;6539;49.476;8.484;2024-01-30T03:35:25;101869.66;;;5.19;93.24
12949;BME280;6539;49.476;8.484;2024-01-30T03:38:11;101873.03;;;5.16;93.22
12949;BME280;6539;49.476;8.484;2024-01-30T03:40:57;101877.34;;;5.17;93.74
12949;BME280;6539;49.476;8.484;2024-01-30T03:43:43;101873.81;;;5.16;93.97
12949;BME280;6539;49.476;8.484;2024-01-30T03:46:29;101875.91;;;5.19;94.32
12949;BME280;6539;49.476;8.484;2024-01-30T03:49:18;101876.03;;;5.23;94.05
12949;BME280;6539;49.476;8.484;2024-01-30T03:52:09;101876.66;;;5.20;94.21
12949;BME280;6539;49.476;8.484;2024-01-30T03:54:55;101874.28;;;5.18;94.68
12949;BME280;6539;49.476;8.484;2024-01-30T03:57:42;101872.38;;;5.19;94.78
12949;BME280;6539;49.476;8.484;2024-01-30T04:00:28;101874.28;;;5.18;94.79
12949;BME280;6539;49.476;8.484;2024-01-30T04:03:17;101876.22;;;5.18;94.38
12949;BME280;6539;49.476;8.484;2024-01-30T04:06:03;101869.19;;;5.17;94.09
12949;BME280;6539;49.476;8.484;2024-01-30T04:08:49;101871.91;;;5.17;94.60
12949;BME280;6539;49.476;8.484;2024-01-30T04:11:38;101873.03;;;5.16;94.91
12949;BME280;6539;49.476;8.484;2024-01-30T04:14:24;101867.13;;;5.14;94.84
12949;BME280;6539;49.476;8.484;2024-01-30T04:17:12;101873.38;;;5.14;95.11
12949;BME280;6539;49.476;8.484;2024-01-30T04:20:01;101872.56;;;5.14;95.03
12949;BME280;6539;49.476;8.484;2024-01-30T04:22:47;101874.97;;;5.15;95.37
12949;BME280;6539;49.476;8.484;2024-01-30T04:25:33;101872.56;;;5.14;95.50
12949;BME280;6539;49.476;8.484;2024-01-30T04:28:19;101874.16;;;5.15;95.77
12949;BME280;6539;49.476;8.484;2024-01-30T04:31:05;101875.28;;;5.14;95.83
12949;BME280;6539;49.476;8.484;2024-01-30T04:33:54;101872.72;;;5.17;96.15
12949;BME280;6539;49.476;8.484;2024-01-30T04:36:44;101871.44;;;5.15;96.06
12949;BME280;6539;49.476;8.484;2024-01-30T04:39:33;101881.88;;;5.13;96.02
12949;BME280;6539;49.476;8.484;2024-01-30T04:42:22;101877.19;;;5.13;96.66
12949;BME280;6539;49.476;8.484;2024-01-30T04:45:08;101877.00;;;5.18;96.77
12949;BME280;6539;49.476;8.484;2024-01-30T04:47:54;101882.13;;;5.20;96.54
12949;BME280;6539;49.476;8.484;2024-01-30T04:50:43;101880.19;;;5.20;96.71
12949;BME280;6539;49.476;8.484;2024-01-30T04:53:31;101878.28;;;5.21;96.73
12949;BME280;6539;49.476;8.484;2024-01-30T04:56:17;101883.59;;;5.17;96.93
12949;BME280;6539;49.476;8.484;2024-01-30T04:59:04;101888.25;;;5.17;97.28
12949;BME280;6539;49.476;8.484;2024-01-30T05:01:50;101883.13;;;5.15;98.46
12949;BME280;6539;49.476;8.484;2024-01-30T05:04:40;101887.44;;;5.16;98.54
12949;BME280;6539;49.476;8.484;2024-01-30T05:07:29;101881.53;;;5.14;98.40
12949;BME280;6539;49.476;8.484;2024-01-30T05:10:15;101890.50;;;5.15;98.46
12949;BME280;6539;49.476;8.484;2024-01-30T05:13:04;101891.44;;;5.19;97.82
12949;BME280;6539;49.476;8.484;2024-01-30T05:15:55;101892.88;;;5.16;97.98
12949;BME280;6539;49.476;8.484;2024-01-30T05:18:41;101883.44;;;5.14;97.91
12949;BME280;6539;49.476;8.484;2024-01-30T05:21:30;101898.22;;;5.13;98.36
12949;BME280;6539;49.476;8.484;2024-01-30T05:24:18;101893.06;;;5.11;98.24
12949;BME280;6539;49.476;8.484;2024-01-30T05:27:04;101897.75;;;5.11;98.68
12949;BME280;6539;49.476;8.484;2024-01-30T05:29:50;101891.84;;;5.09;98.62
12949;BME280;6539;49.476;8.484;2024-01-30T05:32:36;101896.47;;;5.08;98.56
12949;BME280;6539;49.476;8.484;2024-01-30T05:35:23;101897.13;;;5.05;99.30
12949;BME280;6539;49.476;8.484;2024-01-30T05:38:09;101900.66;;;5.06;99.48
12949;BME280;6539;49.476;8.484;2024-01-30T05:40:55;101901.75;;;5.05;99.81
12949;BME280;6539;49.476;8.484;2024-01-30T05:43:47;101895.53;;;5.04;100.00
12949;BME280;6539;49.476;8.484;2024-01-30T05:46:38;101896.31;;;5.05;100.00
12949;BME280;6539;49.476;8.484;2024-01-30T05:49:26;101896.13;;;5.10;99.54
12949;BME280;6539;49.476;8.484;2024-01-30T05:52:12;101898.06;;;5.09;99.74
12949;BME280;6539;49.476;8.484;2024-01-30T05:55:01;101897.59;;;5.07;99.52
12949;BME280;6539;49.476;8.484;2024-01-30T05:57:48;101890.22;;;5.08;99.65
12949;BME280;6539;49.476;8.484;2024-01-30T06:00:36;101908.41;;;5.16;99.27
12949;BME280;6539;49.476;8.484;2024-01-30T06:03:26;101900.25;;;5.16;98.56
12949;BME280;6539;49.476;8.484;2024-01-30T06:06:12;101903.31;;;5.14;98.41
12949;BME280;6539;49.476;8.484;2024-01-30T06:09:01;101905.22;;;5.14;98.44
12949;BME280;6539;49.476;8.484;2024-01-30T06:11:49;101903.78;;;5.16;98.47
12949;BME280;6539;49.476;8.484;2024-01-30T06:14:35;101902.66;;;5.17;100.00
12949;BME280;6539;49.476;8.484;2024-01-30T06:17:22;101896.53;;;5.20;98.77
12949;BME280;6539;49.476;8.484;2024-01-30T06:20:08;101896.69;;;5.24;98.55
12949;BME280;6539;49.476;8.484;2024-01-30T06:22:59;101896.88;;;5.19;98.09
12949;BME280;6539;49.476;8.484;2024-01-30T06:25:47;101899.13;;;5.17;98.36
12949;BME280;6539;49.476;8.484;2024-01-30T06:28:33;101908.41;;;5.16;98.67
12949;BME280;6539;49.476;8.484;2024-01-30T06:31:21;101902.50;;;5.14;99.03
12949;BME280;6539;49.476;8.484;2024-01-30T06:34:12;101894.56;;;5.09;99.10
12949;BME280;6539;49.476;8.484;2024-01-30T06:36:58;101899.84;;;5.05;99.23
12949;BME280;6539;49.476;8.484;2024-01-30T06:39:47;101894.56;;;5.09;98.89
12949;BME280;6539;49.476;8.484;2024-01-30T06:42:33;101902.38;;;5.10;98.58
12949;BME280;6539;49.476;8.484;2024-01-30T06:45:19;101897.41;;;5.12;98.21
12949;BME280;6539;49.476;8.484;2024-01-30T06:48:08;101893.75;;;5.08;98.13
12949;BME280;6539;49.476;8.484;2024-01-30T06:50:54;101901.00;;;5.04;98.21
12949;BME280;6539;49.476;8.484;2024-01-30T06:53:42;101898.91;;;5.01;98.61
12949;BME280;6539;49.476;8.484;2024-01-30T06:56:29;101900.84;;;5.01;98.79
12949;BME280;6539;49.476;8.484;2024-01-30T06:59:20;101903.09;;;4.99;98.78
12949;BME280;6539;49.476;8.484;2024-01-30T07:02:06;101905.50;;;5.00;99.17
12949;BME280;6539;49.476;8.484;2024-01-30T07:04:57;101901.97;;;5.00;98.57
12949;BME280;6539;49.476;8.484;2024-01-30T07:07:43;101904.03;;;5.03;98.42
12949;BME280;6539;49.476;8.484;2024-01-30T07:10:29;101906.28;;;5.01;98.45
12949;BME280;6539;49.476;8.484;2024-01-30T07:13:17;101903.56;;;5.01;99.02
12949;BME280;6539;49.476;8.484;2024-01-30T07:16:03;101907.19;;;5.05;98.83
12949;BME280;6539;49.476;8.484;2024-01-30T07:18:49;101912.34;;;5.06;99.04
12949;BME280;6539;49.476;8.484;2024-01-30T07:21:38;101905.28;;;5.05;98.42
12949;BME280;6539;49.476;8.484;2024-01-30T07:24:26;101913.13;;;5.07;98.51
12949;BME280;6539;49.476;8.484;2024-01-30T07:27:13;101908.16;;;5.09;98.62
12949;BME280;6539;49.476;8.484;2024-01-30T07:30:00;101913.59;;;5.09;98.56
12949;BME280;6539;49.476;8.484;2024-01-30T07:32:46;101913.31;;;5.02;99.16
12949;BME280;6539;49.476;8.484;2024-01-30T07:35:32;101913.44;;;5.05;98.67
12949;BME280;6539;49.476;8.484;2024-01-30T07:38:19;101912.66;;;5.05;98.78
12949;BME280;6539;49.476;8.484;2024-01-30T07:41:05;101915.84;;;5.07;99.08
12949;BME280;6539;49.476;8.484;2024-01-30T07:43:54;101912.94;;;5.12;98.32
12949;BME280;6539;49.476;8.484;2024-01-30T07:46:42;101917.03;;;5.18;97.93
12949;BME280;6539;49.476;8.484;2024-01-30T07:49:31;101919.44;;;5.19;97.99
12949;BME280;6539;49.476;8.484;2024-01-30T07:52:20;101918.66;;;5.19;98.23
12949;BME280;6539;49.476;8.484;2024-01-30T07:55:09;101920.03;;;5.25;97.57
12949;BME280;6539;49.476;8.484;2024-01-30T07:57:55;101929.81;;;5.26;98.14
12949;BME280;6539;49.476;8.484;2024-01-30T08:00:41;101929.88;;;5.38;97.03
12949;BME280;6539;49.476;8.484;2024-01-30T08:03:29;101934.97;;;5.39;96.90
12949;BME280;6539;49.476;8.484;2024-01-30T08:06:16;101942.16;;;5.44;96.18
12949;BME280;6539;49.476;8.484;2024-01-30T08:09:02;101938.78;;;5.47;96.09
12949;BME280;6539;49.476;8.484;2024-01-30T08:11:50;101943.22;;;5.52;95.67
12949;BME280;6539;49.476;8.484;2024-01-30T08:14:39;101945.50;;;5.50;95.41
12949;BME280;6539;49.476;8.484;2024-01-30T08:17:29;101941.53;;;5.59;94.82
12949;BME280;6539;49.476;8.484;2024-01-30T08:20:17;101954.97;;;5.64;94.42
12949;BME280;6539;49.476;8.484;2024-01-30T08:23:09;101953.97;;;5.69;93.98
12949;BME280;6539;49.476;8.484;2024-01-30T08:25:57;101961.91;;;5.74;93.35
12949;BME280;6539;49.476;8.484;2024-01-30T08:28:46;101958.09;;;5.75;94.23
12949;BME280;6539;49.476;8.484;2024-01-30T08:31:32;101961.69;;;5.87;93.68
12949;BME280;6539;49.476;8.484;2024-01-30T08:34:20;101961.78;;;5.91;93.13
12949;BME280;6539;49.476;8.484;2024-01-30T08:37:06;101972.84;;;5.94;93.19
12949;BME280;6539;49.476;8.484;2024-01-30T08:39:53;101962.06;;;5.98;92.61
12949;BME280;6539;49.476;8.484;2024-01-30T08:42:40;101959.38;;;6.10;91.18
12949;BME280;6539;49.476;8.484;2024-01-30T08:45:28;101958.13;;;6.07;90.86
12949;BME280;6539;49.476;8.484;2024-01-30T08:48:14;101958.13;;;6.07;91.57
12949;BME280;6539;49.476;8.484;2024-01-30T08:51:02;101964.69;;;6.06;92.59
12949;BME280;6539;49.476;8.484;2024-01-30T08:53:49;101956.19;;;6.08;92.17
12949;BME280;6539;49.476;8.484;2024-01-30T08:56:37;101954.25;;;6.08;92.58
12949;BME280;6539;49.476;8.484;2024-01-30T08:59:23;101949.94;;;6.07;92.10
12949;BME280;6539;49.476;8.484;2024-01-30T09:02:09;101949.25;;;6.10;92.18
12949;BME280;6539;49.476;8.484;2024-01-30T09:04:56;101956.94;;;6.29;96.34
12949;BME280;6539;49.476;8.484;2024-01-30T09:07:42;101959.31;;;6.43;92.80
12949;BME280;6539;49.476;8.484;2024-01-30T09:10:28;101956.41;;;6.60;95.14
12949;BME280;6539;49.476;8.484;2024-01-30T09:13:17;101955.72;;;6.63;90.50
12949;BME280;6539;49.476;8.484;2024-01-30T09:16:06;101973.13;;;6.70;87.91
12949;BME280;6539;49.476;8.484;2024-01-30T09:18:52;101959.81;;;6.69;87.23
12949;BME280;6539;49.476;8.484;2024-01-30T09:21:38;101962.53;;;6.69;87.35
12949;BME280;6539;49.476;8.484;2024-01-30T09:24:27;101960.06;;;6.64;87.78
12949;BME280;6539;49.476;8.484;2024-01-30T09:27:13;101965.50;;;6.64;88.15
12949;BME280;6539;49.476;8.484;2024-01-30T09:30:05;101971.63;;;6.73;86.98
12949;BME280;6539;49.476;8.484;2024-01-30T09:32:52;101979.38;;;6.83;86.08
12949;BME280;6539;49.476;8.484;2024-01-30T09:35:38;101969.72;;;6.85;85.97
12949;BME280;6539;49.476;8.484;2024-01-30T09:38:26;101975.97;;;6.86;85.52
12949;BME280;6539;49.476;8.484;2024-01-30T09:41:12;101967.66;;;6.94;86.21
12949;BME280;6539;49.476;8.484;2024-01-30T09:44:00;101981.06;;;7.12;86.16
12949;BME280;6539;49.476;8.484;2024-01-30T09:46:49;101979.19;;;7.40;84.20
12949;BME280;6539;49.476;8.484;2024-01-30T09:49:37;101977.84;;;7.46;83.74
12949;BME280;6539;49.476;8.484;2024-01-30T09:52:24;101966.56;;;7.47;83.58
12949;BME280;6539;49.476;8.484;2024-01-30T09:55:11;101978.84;;;7.53;82.44
12949;BME280;6539;49.476;8.484;2024-01-30T09:57:57;101974.97;;;7.54;82.53
12949;BME280;6539;49.476;8.484;2024-01-30T10:00:45;101980.19;;;7.59;82.06
12949;BME280;6539;49.476;8.484;2024-01-30T10:03:34;101982.22;;;7.62;81.78
12949;BME280;6539;49.476;8.484;2024-01-30T10:06:21;101980.84;;;7.68;81.91
12949;BME280;6539;49.476;8.484;2024-01-30T10:09:10;101977.06;;;7.73;81.07
12949;BME280;6539;49.476;8.484;2024-01-30T10:11:59;101981.28;;;7.70;81.63
12949;BME280;6539;49.476;8.484;2024-01-30T10:14:49;101988.53;;;7.79;80.35
12949;BME280;6539;49.476;8.484;2024-01-30T10:17:38;101990.50;;;7.78;80.99
12949;BME280;6539;49.476;8.484;2024-01-30T10:20:26;101986.88;;;7.74;80.00
12949;BME280;6539;49.476;8.484;2024-01-30T10:23:13;101984.16;;;7.74;80.32
12949;BME280;6539;49.476;8.484;2024-01-30T10:26:03;101981.16;;;7.79;80.11
12949;BME280;6539;49.476;8.484;2024-01-30T10:28:49;101975.59;;;7.76;79.67
12949;BME280;6539;49.476;8.484;2024-01-30T10:31:45;101980.84;;;7.68;80.15
12949;BME280;6539;49.476;8.484;2024-01-30T10:34:33;101978.56;;;7.70;80.77
12949;BME280;6539;49.476;8.484;2024-01-30T10:37:25;101977.78;;;7.98;81.76
12949;BME280;6539;49.476;8.484;2024-01-30T10:40:15;101971.00;;;8.07;80.29
12949;BME280;6539;49.476;8.484;2024-01-30T10:43:03;101972.00;;;8.15;80.04
12949;BME280;6539;49.476;8.484;2024-01-30T10:45:54;101974.53;;;8.35;79.32
12949;BME280;6539;49.476;8.484;2024-01-30T10:48:57;101975.97;;;8.45;78.16
12949;BME280;6539;49.476;8.484;2024-01-30T10:51:45;101963.22;;;8.37;78.63
12949;BME280;6539;49.476;8.484;2024-01-30T10:54:36;101970.47;;;8.45;77.80
12949;BME280;6539;49.476;8.484;2024-01-30T10:57:28;101959.25;;;8.66;77.37
12949;BME280;6539;49.476;8.484;2024-01-30T11:00:18;101955.97;;;8.76;76.73
12949;BME280;6539;49.476;8.484;2024-01-30T11:03:08;101958.03;;;8.79;76.47
12949;BME280;6539;49.476;8.484;2024-01-30T11:06:00;101968.53;;;8.92;76.04
12949;BME280;6539;49.476;8.484;2024-01-30T11:09:00;101973.53;;;9.41;72.85
12949;BME280;6539;49.476;8.484;2024-01-30T11:11:59;101979.47;;;9.62;71.05
12949;BME280;6539;49.476;8.484;2024-01-30T11:15:16;101975.34;;;9.52;71.08
12949;BME280;6539;49.476;8.484;2024-01-30T11:18:03;101983.72;;;9.40;71.08
12949;BME280;6539;49.476;8.484;2024-01-30T11:20:51;101972.06;;;9.28;72.26
12949;BME280;6539;49.476;8.484;2024-01-30T11:23:40;101979.41;;;9.23;72.87
12949;BME280;6539;49.476;8.484;2024-01-30T11:26:28;101970.75;;;9.21;73.31
12949;BME280;6539;49.476;8.484;2024-01-30T11:29:17;101969.31;;;9.28;73.08
12949;BME280;6539;49.476;8.484;2024-01-30T11:32:03;101976.72;;;9.43;72.28
12949;BME280;6539;49.476;8.484;2024-01-30T11:34:50;101973.00;;;9.51;72.07
12949;BME280;6539;49.476;8.484;2024-01-30T11:37:37;101964.75;;;9.51;71.92
12949;BME280;6539;49.476;8.484;2024-01-30T11:40:31;101961.59;;;9.49;72.11
12949;BME280;6539;49.476;8.484;2024-01-30T11:43:21;101956.78;;;9.27;73.55
12949;BME280;6539;49.476;8.484;2024-01-30T11:46:07;101956.03;;;9.10;74.72
12949;BME280;6539;49.476;8.484;2024-01-30T11:48:55;101943.56;;;9.13;74.83
12949;BME280;6539;49.476;8.484;2024-01-30T11:51:45;101927.50;;;9.11;75.37
12949;BME280;6539;49.476;8.484;2024-01-30T11:54:32;101914.22;;;9.13;75.52
12949;BME280;6539;49.476;8.484;2024-01-30T11:57:18;101911.13;;;9.15;75.55
12949;BME280;6539;49.476;8.484;2024-01-30T12:00:05;101918.69;;;9.21;75.75
12949;BME280;6539;49.476;8.484;2024-01-30T12:02:56;101922.69;;;9.43;74.65
12949;BME280;6539;49.476;8.484;2024-01-30T12:05:45;101914.41;;;9.59;73.86
12949;BME280;6539;49.476;8.484;2024-01-30T12:08:31;101904.13;;;9.56;74.12
12949;BME280;6539;49.476;8.484;2024-01-30T12:11:17;101898.00;;;9.62;73.72
12949;BME280;6539;49.476;8.484;2024-01-30T12:14:06;101902.97;;;9.76;73.06
12949;BME280;6539;49.476;8.484;2024-01-30T12:16:52;101905.28;;;9.74;73.75
12949;BME280;6539;49.476;8.484;2024-01-30T12:19:38;101911.47;;;9.90;72.59
12949;BME280;6539;49.476;8.484;2024-01-30T12:22:27;101900.81;;;9.85;72.67
12949;BME280;6539;49.476;8.484;2024-01-30T12:25:14;101902.38;;;9.86;72.78
12949;BME280;6539;49.476;8.484;2024-01-30T12:28:05;101896.19;;;9.89;72.96
12949;BME280;6539;49.476;8.484;2024-01-30T12:31:04;101903.72;;;10.15;71.36
12949;BME280;6539;49.476;8.484;2024-01-30T12:33:50;101900.19;;;10.14;71.77
12949;BME280;6539;49.476;8.484;2024-01-30T12:36:39;101905.56;;;10.30;71.09
12949;BME280;6539;49.476;8.484;2024-01-30T12:39:25;101908.78;;;10.35;70.89
12949;BME280;6539;49.476;8.484;2024-01-30T12:42:11;101915.25;;;10.46;70.51
12949;BME280;6539;49.476;8.484;2024-01-30T12:45:03;101912.94;;;10.48;70.32
12949;BME280;6539;49.476;8.484;2024-01-30T12:47:50;101903.53;;;10.49;70.13
12949;BME280;6539;49.476;8.484;2024-01-30T12:50:36;101895.78;;;10.55;69.91
12949;BME280;6539;49.476;8.484;2024-01-30T12:53:24;101897.41;;;10.59;70.04
12949;BME280;6539;49.476;8.484;2024-01-30T12:56:16;101896.44;;;10.71;70.10
12949;BME280;6539;49.476;8.484;2024-01-30T12:59:02;101910.03;;;10.87;69.22
12949;BME280;6539;49.476;8.484;2024-01-30T13:01:48;101903.03;;;10.93;69.30
12949;BME280;6539;49.476;8.484;2024-01-30T13:04:34;101906.81;;;11.11;68.30
12949;BME280;6539;49.476;8.484;2024-01-30T13:07:23;101912.41;;;11.18;67.73
12949;BME280;6539;49.476;8.484;2024-01-30T13:10:11;101902.59;;;11.17;68.66
12949;BME280;6539;49.476;8.484;2024-01-30T13:13:00;101901.03;;;11.19;68.35
12949;BME280;6539;49.476;8.484;2024-01-30T13:15:50;101907.44;;;11.27;67.82
12949;BME280;6539;49.476;8.484;2024-01-30T13:18:36;101894.84;;;11.26;68.07
12949;BME280;6539;49.476;8.484;2024-01-30T13:21:24;101905.06;;;11.25;68.37
12949;BME280;6539;49.476;8.484;2024-01-30T13:24:15;101896.84;;;11.29;68.79
12949;BME280;6539;49.476;8.484;2024-01-30T13:27:07;101889.53;;;11.40;68.14
12949;BME280;6539;49.476;8.484;2024-01-30T13:29:56;101898.53;;;11.37;68.33
12949;BME280;6539;49.476;8.484;2024-01-30T13:32:45;101882.03;;;11.37;68.61
12949;BME280;6539;49.476;8.484;2024-01-30T13:35:32;101886.81;;;11.43;68.63
12949;BME280;6539;49.476;8.484;2024-01-30T13:38:18;101892.75;;;11.45;68.46
12949;BME280;6539;49.476;8.484;2024-01-30T13:41:09;101892.28;;;11.40;68.54
12949;BME280;6539;49.476;8.484;2024-01-30T13:43:55;101887.13;;;11.35;68.99
12949;BME280;6539;49.476;8.484;2024-01-30T13:46:41;101889.41;;;11.29;69.43
12949;BME280;6539;49.476;8.484;2024-01-30T13:49:27;101888.66;;;11.32;69.60
12949;BME280;6539;49.476;8.484;2024-01-30T13:52:16;101886.03;;;11.43;68.72
12949;BME280;6539;49.476;8.484;2024-01-30T13:55:02;101898.94;;;11.39;69.57
12949;BME280;6539;49.476;8.484;2024-01-30T13:57:48;101889.94;;;11.38;69.44
12949;BME280;6539;49.476;8.484;2024-01-30T14:00:34;101884.78;;;11.37;69.47
12949;BME280;6539;49.476;8.484;2024-01-30T14:03:20;101878.34;;;11.26;70.30
12949;BME280;6539;49.476;8.484;2024-01-30T14:06:07;101870.81;;;11.19;70.71
12949;BME280;6539;49.476;8.484;2024-01-30T14:08:55;101871.59;;;11.20;70.74
12949;BME280;6539;49.476;8.484;2024-01-30T14:11:41;101873.63;;;11.23;70.58
12949;BME280;6539;49.476;8.484;2024-01-30T14:14:30;101876.31;;;11.19;70.62
12949;BME280;6539;49.476;8.484;2024-01-30T14:17:16;101873.19;;;11.21;70.92
12949;BME280;6539;49.476;8.484;2024-01-30T14:20:06;101864.19;;;11.24;70.75
12949;BME280;6539;49.476;8.484;2024-01-30T14:22:55;101870.97;;;11.30;71.16
12949;BME280;6539;49.476;8.484;2024-01-30T14:25:44;101865.09;;;11.31;70.88
12949;BME280;6539;49.476;8.484;2024-01-30T14:28:33;101877.94;;;11.24;71.36
12949;BME280;6539;49.476;8.484;2024-01-30T14:31:19;101864.56;;;11.22;71.47
12949;BME280;6539;49.476;8.484;2024-01-30T14:34:06;101869.28;;;11.22;71.73
12949;BME280;6539;49.476;8.484;2024-01-30T14:36:54;101868.13;;;11.23;71.55
12949;BME280;6539;49.476;8.484;2024-01-30T14:39:43;101868.53;;;11.25;71.34
12949;BME280;6539;49.476;8.484;2024-01-30T14:42:35;101874.78;;;11.22;71.98
12949;BME280;6539;49.476;8.484;2024-01-30T14:45:21;101875.56;;;11.22;72.01
12949;BME280;6539;49.476;8.484;2024-01-30T14:48:10;101892.78;;;11.19;72.41
12949;BME280;6539;49.476;8.484;2024-01-30T14:50:58;101883.38;;;11.17;72.80
12949;BME280;6539;49.476;8.484;2024-01-30T14:53:44;101887.69;;;11.18;72.55
12949;BME280;6539;49.476;8.484;2024-01-30T14:56:36;101892.84;;;11.23;72.54
12949;BME280;6539;49.476;8.484;2024-01-30T14:59:24;101905.41;;;11.24;72.64